createdAt,value
2018-09-11T00:00:42.590Z,9.40
2018-09-11T00:01:42.609Z,8.30
2018-09-11T00:02:42.558Z,9.20
2018-09-11T00:03:42.577Z,7.30
2018-09-11T00:04:42.542Z,6.80
2018-09-11T00:05:42.551Z,9.60
2018-09-11T00:06:42.516Z,9.20
2018-09-11T00:07:42.515Z,7.00
2018-09-11T00:08:42.530Z,9.90
2018-09-11T00:09:42.490Z,8.20
2018-09-11T00:10:42.544Z,6.70
2018-09-11T00:11:42.461Z,6.70
2018-09-11T00:12:42.457Z,8.60
2018-09-11T00:13:42.436Z,8.90
2018-09-11T00:14:42.452Z,10.30
2018-09-11T00:15:42.413Z,7.50
2018-09-11T00:16:42.411Z,10.00
2018-09-11T00:17:42.396Z,11.10
2018-09-11T00:18:42.386Z,6.10
2018-09-11T00:19:42.440Z,10.00
2018-09-11T00:20:42.362Z,9.00
2018-09-11T00:21:42.353Z,8.40
2018-09-11T00:22:42.359Z,8.40
2018-09-11T00:23:42.331Z,7.80
2018-09-11T00:24:42.318Z,8.30
2018-09-11T00:25:42.338Z,10.70
2018-09-11T00:26:42.298Z,6.70
2018-09-11T00:27:42.364Z,7.80
2018-09-11T00:28:42.324Z,8.70
2018-09-11T00:29:42.264Z,11.40
2018-09-11T00:30:42.309Z,7.00
2018-09-11T00:31:42.271Z,6.90
2018-09-11T00:32:42.234Z,9.10
2018-09-11T00:33:42.220Z,10.00
2018-09-11T00:34:42.220Z,9.20
2018-09-11T00:35:42.232Z,8.80
2018-09-11T00:36:42.202Z,9.00
2018-09-11T00:37:42.183Z,9.30
2018-09-11T00:38:42.174Z,8.90
2018-09-11T00:39:42.162Z,7.70
2018-09-11T00:40:42.210Z,13.60
2018-09-11T00:41:42.152Z,7.30
2018-09-11T00:42:42.136Z,11.40
2018-09-11T00:43:42.136Z,7.20
2018-09-11T00:44:42.098Z,7.10
2018-09-11T00:45:42.102Z,7.50
2018-09-11T00:46:42.117Z,9.20
2018-09-11T00:47:42.082Z,10.10
2018-09-11T00:48:42.072Z,7.50
2018-09-11T00:49:42.048Z,8.90
2018-09-11T00:50:42.035Z,10.10
2018-09-11T00:51:42.074Z,8.90
2018-09-11T00:52:42.015Z,10.80
2018-09-11T00:53:42.008Z,9.60
2018-09-11T00:54:42.021Z,9.70
2018-09-11T00:55:41.982Z,9.80
2018-09-11T00:56:42.033Z,9.90
2018-09-11T00:57:41.974Z,7.20
2018-09-11T00:58:41.949Z,6.90
2018-09-11T00:59:41.934Z,7.90
2018-09-11T01:00:41.937Z,7.80
2018-09-11T01:01:41.917Z,6.70
2018-09-11T01:02:41.955Z,9.30
2018-09-11T01:03:41.911Z,8.90
2018-09-11T01:04:41.881Z,8.40
2018-09-11T01:05:41.878Z,7.00
2018-09-11T01:06:41.880Z,6.80
2018-09-11T01:07:41.900Z,7.80
2018-09-11T01:08:41.840Z,9.70
2018-09-11T01:09:41.857Z,7.70
2018-09-11T01:10:41.819Z,10.80
2018-09-11T01:11:41.811Z,10.20
2018-09-11T01:12:41.822Z,10.70
2018-09-11T01:13:41.790Z,8.50
2018-09-11T01:14:41.774Z,8.00
2018-09-11T01:15:41.779Z,6.70
2018-09-11T01:16:41.768Z,8.50
2018-09-11T01:17:41.773Z,13.10
2018-09-11T01:18:41.728Z,8.90
2018-09-11T01:19:41.721Z,8.70
2018-09-11T01:20:41.731Z,9.20
2018-09-11T01:21:41.699Z,8.70
2018-09-11T01:22:41.696Z,8.60
2018-09-11T01:23:41.707Z,10.80
2018-09-11T01:24:41.665Z,10.50
2018-09-11T01:25:41.653Z,8.10
2018-09-11T01:26:41.669Z,10.70
2018-09-11T01:27:41.643Z,8.40
2018-09-11T01:28:41.652Z,7.90
2018-09-11T01:29:41.612Z,9.30
2018-09-11T01:30:41.602Z,9.70
2018-09-11T01:31:41.646Z,7.50
2018-09-11T01:32:41.586Z,9.10
2018-09-11T01:33:41.603Z,7.10
2018-09-11T01:34:41.564Z,11.60
2018-09-11T01:35:41.545Z,8.70
2018-09-11T01:36:41.531Z,7.30
2018-09-11T01:37:41.535Z,8.20
2018-09-11T01:38:41.530Z,8.70
2018-09-11T01:39:41.553Z,10.50
2018-09-11T01:40:41.492Z,11.00
2018-09-11T01:41:41.484Z,9.60
2018-09-11T01:42:41.470Z,8.90
2018-09-11T01:43:41.474Z,10.10
2018-09-11T01:44:41.472Z,9.20
2018-09-11T01:45:41.439Z,8.40
2018-09-11T01:46:41.427Z,7.50
2018-09-11T01:47:41.416Z,7.70
2018-09-11T01:48:41.410Z,11.30
2018-09-11T01:49:41.453Z,7.20
2018-09-11T01:50:41.383Z,9.80
2018-09-11T01:51:41.373Z,11.00
2018-09-11T01:52:41.357Z,8.40
2018-09-11T01:53:41.350Z,10.80
2018-09-11T01:54:41.337Z,11.10
2018-09-11T01:55:41.360Z,10.80
2018-09-11T01:56:41.327Z,10.00
2018-09-11T01:57:41.309Z,6.90
2018-09-11T01:58:41.302Z,9.70
2018-09-11T01:59:41.282Z,8.30
2018-09-11T02:00:41.309Z,6.70
2018-09-11T02:01:41.258Z,7.60
2018-09-11T02:02:41.261Z,11.50
2018-09-11T02:03:41.242Z,8.20
2018-09-11T02:04:41.230Z,9.20
2018-09-11T02:05:41.242Z,11.50
2018-09-11T02:06:41.204Z,7.80
2018-09-11T02:07:41.195Z,8.20
2018-09-11T02:08:41.181Z,8.40
2018-09-11T02:09:41.174Z,6.10
2018-09-11T02:10:41.181Z,7.40
2018-09-11T02:11:41.181Z,9.20
2018-09-11T02:12:41.154Z,8.00
2018-09-11T02:13:41.131Z,8.80
2018-09-11T02:14:41.131Z,11.40
2018-09-11T02:15:41.112Z,7.90
2018-09-11T02:16:41.122Z,11.00
2018-09-11T02:17:41.082Z,7.90
2018-09-11T02:18:41.088Z,8.10
2018-09-11T02:19:41.065Z,7.80
2018-09-11T02:20:41.067Z,8.60
2018-09-11T02:21:41.096Z,10.50
2018-09-11T02:22:41.068Z,10.60
2018-09-11T02:23:41.019Z,9.30
2018-09-11T02:24:41.013Z,10.20
2018-09-11T02:25:41.000Z,8.70
2018-09-11T02:26:40.989Z,7.90
2018-09-11T02:27:41.021Z,9.20
2018-09-11T02:28:40.963Z,8.10
2018-09-11T02:29:40.959Z,9.30
2018-09-11T02:30:41.000Z,9.00
2018-09-11T02:31:40.930Z,9.60
2018-09-11T02:32:40.950Z,7.30
2018-09-11T02:33:40.958Z,10.10
2018-09-11T02:34:40.897Z,11.00
2018-09-11T02:35:40.944Z,10.60
2018-09-11T02:36:40.874Z,9.20
2018-09-11T02:37:40.901Z,8.00
2018-09-11T02:38:40.856Z,6.30
2018-09-11T02:39:40.843Z,7.90
2018-09-11T02:40:40.832Z,8.30
2018-09-11T02:41:40.832Z,10.30
2018-09-11T02:42:40.839Z,8.30
2018-09-11T02:43:40.797Z,9.70
2018-09-11T02:44:40.785Z,11.90
2018-09-11T02:45:40.801Z,9.30
2018-09-11T02:46:40.786Z,14.00
2018-09-11T02:47:40.795Z,9.10
2018-09-11T02:48:40.747Z,9.40
2018-09-11T02:49:40.757Z,10.30
2018-09-11T02:50:40.719Z,8.60
2018-09-11T02:51:40.723Z,8.40
2018-09-11T02:52:40.729Z,8.20
2018-09-11T02:53:40.696Z,11.80
2018-09-11T02:54:40.689Z,11.30
2018-09-11T02:55:40.668Z,7.90
2018-09-11T02:56:40.656Z,7.40
2018-09-11T02:57:40.682Z,10.50
2018-09-11T02:58:40.649Z,10.10
2018-09-11T02:59:40.620Z,8.80
2018-09-11T03:00:40.616Z,8.60
2018-09-11T03:01:40.599Z,9.80
2018-09-11T03:02:40.619Z,10.60
2018-09-11T03:03:40.640Z,12.50
2018-09-11T03:04:40.569Z,9.90
2018-09-11T03:05:40.559Z,8.80
2018-09-11T03:06:40.542Z,11.20
2018-09-11T03:07:40.562Z,10.90
2018-09-11T03:08:40.545Z,12.20
2018-09-11T03:09:40.522Z,11.80
2018-09-11T03:10:40.505Z,10.10
2018-09-11T03:11:40.494Z,9.40
2018-09-11T03:12:40.475Z,9.00
2018-09-11T03:13:40.562Z,10.60
2018-09-11T03:14:40.465Z,11.90
2018-09-11T03:15:40.445Z,9.00
2018-09-11T03:16:40.460Z,11.00
2018-09-11T03:17:40.460Z,12.90
2018-09-11T03:18:40.482Z,9.30
2018-09-11T03:19:40.409Z,11.40
2018-09-11T03:20:40.406Z,9.90
2018-09-11T03:21:40.394Z,7.60
2018-09-11T03:22:40.394Z,9.10
2018-09-11T03:23:40.355Z,9.70
2018-09-11T03:24:40.384Z,10.70
2018-09-11T03:25:40.337Z,9.60
2018-09-11T03:26:40.330Z,11.30
2018-09-11T03:27:40.323Z,10.70
2018-09-11T03:28:40.302Z,10.60
2018-09-11T03:29:40.324Z,9.90
2018-09-11T03:30:40.291Z,9.80
2018-09-11T03:31:40.279Z,9.60
2018-09-11T03:32:40.269Z,10.10
2018-09-11T03:33:40.257Z,9.30
2018-09-11T03:34:40.269Z,9.30
2018-09-11T03:35:40.223Z,11.00
2018-09-11T03:36:40.214Z,8.60
2018-09-11T03:37:40.202Z,9.70
2018-09-11T03:38:40.202Z,8.20
2018-09-11T03:39:40.230Z,9.90
2018-09-11T03:40:40.209Z,8.30
2018-09-11T03:41:40.215Z,7.80
2018-09-11T03:42:40.154Z,10.90
2018-09-11T03:43:40.158Z,10.20
2018-09-11T03:44:40.126Z,9.50
2018-09-11T03:45:40.155Z,9.60
2018-09-11T03:46:40.102Z,10.90
2018-09-11T03:47:40.098Z,9.10
2018-09-11T03:48:40.087Z,13.00
2018-09-11T03:49:40.072Z,9.80
2018-09-11T03:50:40.062Z,9.50
2018-09-11T03:51:40.075Z,9.70
2018-09-11T03:52:40.056Z,11.30
2018-09-11T03:53:40.072Z,10.50
2018-09-11T03:54:40.038Z,11.10
2018-09-11T03:55:40.016Z,12.10
2018-09-11T03:56:40.046Z,11.90
2018-09-11T03:57:39.989Z,11.30
2018-09-11T03:58:39.969Z,10.50
2018-09-11T03:59:39.962Z,11.60
2018-09-11T04:00:39.957Z,13.00
2018-09-11T04:01:39.952Z,10.70
2018-09-11T04:02:39.959Z,12.80
2018-09-11T04:03:39.943Z,9.30
2018-09-11T04:04:39.920Z,11.40
2018-09-11T04:05:39.898Z,9.10
2018-09-11T04:06:39.921Z,13.00
2018-09-11T04:07:39.881Z,12.40
2018-09-11T04:08:39.872Z,10.60
2018-09-11T04:09:39.874Z,12.50
2018-09-11T04:10:39.841Z,10.20
2018-09-11T04:11:39.835Z,13.80
2018-09-11T04:12:39.860Z,11.40
2018-09-11T04:13:39.811Z,10.20
2018-09-11T04:14:39.802Z,8.50
2018-09-11T04:15:39.794Z,7.50
2018-09-11T04:16:39.784Z,11.10
2018-09-11T04:17:39.775Z,11.00
2018-09-11T04:18:39.793Z,11.80
2018-09-11T04:19:39.758Z,13.90
2018-09-11T04:20:39.771Z,9.50
2018-09-11T04:21:39.729Z,9.60
2018-09-11T04:22:39.713Z,9.40
2018-09-11T04:23:39.719Z,9.80
2018-09-11T04:24:39.683Z,10.40
2018-09-11T04:25:39.811Z,7.80
2018-09-11T04:26:39.691Z,10.10
2018-09-11T04:27:39.659Z,9.30
2018-09-11T04:28:39.677Z,12.20
2018-09-11T04:29:39.684Z,9.20
2018-09-11T04:30:39.623Z,10.40
2018-09-11T04:31:39.614Z,10.70
2018-09-11T04:32:39.598Z,8.10
2018-09-11T04:33:39.613Z,11.30
2018-09-11T04:34:39.571Z,9.20
2018-09-11T04:35:39.569Z,8.10
2018-09-11T04:36:39.550Z,11.40
2018-09-11T04:37:39.549Z,9.90
2018-09-11T04:38:39.571Z,9.00
2018-09-11T04:39:39.526Z,8.20
2018-09-11T04:40:39.515Z,11.50
2018-09-11T04:41:39.497Z,10.40
2018-09-11T04:42:39.496Z,9.50
2018-09-11T04:43:39.540Z,10.90
2018-09-11T04:44:39.468Z,9.90
2018-09-11T04:45:39.454Z,11.70
2018-09-11T04:46:39.467Z,11.30
2018-09-11T04:47:39.433Z,17.00
2018-09-11T04:48:39.455Z,10.90
2018-09-11T04:49:39.435Z,12.20
2018-09-11T04:50:39.421Z,10.10
2018-09-11T04:51:39.410Z,11.40
2018-09-11T04:52:39.388Z,10.30
2018-09-11T04:53:39.362Z,11.60
2018-09-11T04:54:39.387Z,9.10
2018-09-11T04:55:39.346Z,11.80
2018-09-11T04:56:39.351Z,11.50
2018-09-11T04:57:39.319Z,11.40
2018-09-11T04:58:39.313Z,7.70
2018-09-11T04:59:39.313Z,17.80
2018-09-11T05:00:39.336Z,11.70
2018-09-11T05:01:39.283Z,10.10
2018-09-11T05:02:39.277Z,9.10
2018-09-11T05:03:39.289Z,11.30
2018-09-11T05:04:39.283Z,9.50
2018-09-11T05:05:39.286Z,11.10
2018-09-11T05:06:39.242Z,11.40
2018-09-11T05:07:39.225Z,12.90
2018-09-11T05:08:39.207Z,9.40
2018-09-11T05:09:39.188Z,14.00
2018-09-11T05:10:39.221Z,9.70
2018-09-11T05:11:39.170Z,9.80
2018-09-11T05:12:39.178Z,12.70
2018-09-11T05:13:39.145Z,8.70
2018-09-11T05:14:39.154Z,11.40
2018-09-11T05:15:39.187Z,10.80
2018-09-11T05:16:39.117Z,10.80
2018-09-11T05:17:39.112Z,10.60
2018-09-11T05:18:39.092Z,9.40
2018-09-11T05:19:39.095Z,16.30
2018-09-11T05:20:39.113Z,11.00
2018-09-11T05:21:39.056Z,8.00
2018-09-11T05:22:39.059Z,10.50
2018-09-11T05:23:39.046Z,8.90
2018-09-11T05:24:39.025Z,8.10
2018-09-11T05:25:39.075Z,10.00
2018-09-11T05:26:39.006Z,10.90
2018-09-11T05:27:39.004Z,11.30
2018-09-11T05:28:38.990Z,8.90
2018-09-11T05:29:38.995Z,11.20
2018-09-11T05:30:38.964Z,9.70
2018-09-11T05:31:38.978Z,11.20
2018-09-11T05:32:38.937Z,10.40
2018-09-11T05:33:38.927Z,8.40
2018-09-11T05:34:38.913Z,8.00
2018-09-11T05:35:38.988Z,9.70
2018-09-11T05:36:38.929Z,11.30
2018-09-11T05:37:38.886Z,9.10
2018-09-11T05:38:38.876Z,8.40
2018-09-11T05:39:38.862Z,7.20
2018-09-11T05:40:38.853Z,8.30
2018-09-11T05:41:38.889Z,9.70
2018-09-11T05:42:38.832Z,9.60
2018-09-11T05:43:38.826Z,8.00
2018-09-11T05:44:38.811Z,8.80
2018-09-11T05:45:38.795Z,10.90
2018-09-11T05:46:38.785Z,9.30
2018-09-11T05:47:38.805Z,8.40
2018-09-11T05:48:38.768Z,10.60
2018-09-11T05:49:38.758Z,9.20
2018-09-11T05:50:38.747Z,11.00
2018-09-11T05:51:38.738Z,9.90
2018-09-11T05:52:38.763Z,9.00
2018-09-11T05:53:38.717Z,9.50
2018-09-11T05:54:38.692Z,8.10
2018-09-11T05:55:38.686Z,8.50
2018-09-11T05:56:38.687Z,13.70
2018-09-11T05:57:38.702Z,8.80
2018-09-11T05:58:38.679Z,7.80
2018-09-11T05:59:38.640Z,8.20
2018-09-11T06:00:38.662Z,8.40
2018-09-11T06:01:38.643Z,10.70
2018-09-11T06:02:38.617Z,7.80
2018-09-11T06:03:38.623Z,9.20
2018-09-11T06:04:38.585Z,9.50
2018-09-11T06:05:38.625Z,11.30
2018-09-11T06:06:38.585Z,7.00
2018-09-11T06:07:38.573Z,10.30
2018-09-11T06:08:38.636Z,9.10
2018-09-11T06:09:38.558Z,8.20
2018-09-11T06:10:38.546Z,7.50
2018-09-11T06:11:38.532Z,11.00
2018-09-11T06:12:38.496Z,9.60
2018-09-11T06:13:38.513Z,7.90
2018-09-11T06:14:38.471Z,8.60
2018-09-11T06:15:38.492Z,10.20
2018-09-11T06:16:38.464Z,8.70
2018-09-11T06:17:38.456Z,9.10
2018-09-11T06:18:38.430Z,8.70
2018-09-11T06:19:38.456Z,12.20
2018-09-11T06:20:38.408Z,11.60
2018-09-11T06:21:38.422Z,7.10
2018-09-11T06:22:38.398Z,12.50
2018-09-11T06:23:38.398Z,7.60
2018-09-11T06:24:38.401Z,9.80
2018-09-11T06:25:38.391Z,9.20
2018-09-11T06:26:38.346Z,6.40
2018-09-11T06:27:38.332Z,11.50
2018-09-11T06:28:38.322Z,9.30
2018-09-11T06:29:38.362Z,9.80
2018-09-11T06:30:38.300Z,9.40
2018-09-11T06:31:38.292Z,9.70
2018-09-11T06:32:38.293Z,8.40
2018-09-11T06:33:38.281Z,10.30
2018-09-11T06:34:38.317Z,9.40
2018-09-11T06:35:38.271Z,11.60
2018-09-11T06:36:38.232Z,8.80
2018-09-11T06:37:38.225Z,8.20
2018-09-11T06:38:38.220Z,9.30
2018-09-11T06:39:38.202Z,11.50
2018-09-11T06:40:38.236Z,11.10
2018-09-11T06:41:38.182Z,9.70
2018-09-11T06:42:38.174Z,10.60
2018-09-11T06:43:38.159Z,10.80
2018-09-11T06:44:38.197Z,9.50
2018-09-11T06:45:38.139Z,9.30
2018-09-11T06:46:38.149Z,9.40
2018-09-11T06:47:38.115Z,13.20
2018-09-11T06:48:38.112Z,12.50
2018-09-11T06:49:38.092Z,11.30
2018-09-11T06:50:38.092Z,10.70
2018-09-11T06:51:38.098Z,11.60
2018-09-11T06:52:38.075Z,8.40
2018-09-11T06:53:38.057Z,12.30
2018-09-11T06:54:38.123Z,6.80
2018-09-11T06:55:38.031Z,8.00
2018-09-11T06:56:38.043Z,9.30
2018-09-11T06:57:38.018Z,7.40
2018-09-11T06:58:37.996Z,7.20
2018-09-11T06:59:37.995Z,8.90
2018-09-11T07:00:38.039Z,7.60
2018-09-11T07:01:37.989Z,8.10
2018-09-11T07:02:37.950Z,6.90
2018-09-11T07:03:37.942Z,9.10
2018-09-11T07:04:37.938Z,9.90
2018-09-11T07:05:37.920Z,12.30
2018-09-11T07:06:37.940Z,8.40
2018-09-11T07:07:37.917Z,6.70
2018-09-11T07:08:38.010Z,9.00
2018-09-11T07:09:37.876Z,7.70
2018-09-11T07:10:37.865Z,6.50
2018-09-11T07:11:37.854Z,10.60
2018-09-11T07:12:37.876Z,6.10
2018-09-11T07:13:37.835Z,9.00
2018-09-11T07:14:37.880Z,8.60
2018-09-11T07:15:37.814Z,7.30
2018-09-11T07:16:37.799Z,7.90
2018-09-11T07:17:37.817Z,6.70
2018-09-11T07:18:37.774Z,10.40
2018-09-11T07:19:37.788Z,6.40
2018-09-11T07:20:37.765Z,9.30
2018-09-11T07:21:37.743Z,6.90
2018-09-11T07:22:37.736Z,6.70
2018-09-11T07:23:37.760Z,7.70
2018-09-11T07:24:37.710Z,8.80
2018-09-11T07:25:37.704Z,7.70
2018-09-11T07:26:37.688Z,6.70
2018-09-11T07:27:37.677Z,12.00
2018-09-11T07:28:37.697Z,6.50
2018-09-11T07:29:37.666Z,5.60
2018-09-11T07:30:37.666Z,4.70
2018-09-11T07:31:37.633Z,7.90
2018-09-11T07:32:37.621Z,4.60
2018-09-11T07:33:37.666Z,7.70
2018-09-11T07:34:37.600Z,4.90
2018-09-11T07:35:37.625Z,6.60
2018-09-11T07:36:37.579Z,4.30
2018-09-11T07:37:37.573Z,6.90
2018-09-11T07:38:37.558Z,5.10
2018-09-11T07:39:37.602Z,5.60
2018-09-11T07:40:37.537Z,3.70
2018-09-11T07:41:37.526Z,5.30
2018-09-11T07:42:37.517Z,7.80
2018-09-11T07:43:37.505Z,5.30
2018-09-11T07:44:37.531Z,6.50
2018-09-11T07:45:37.563Z,5.50
2018-09-11T07:46:37.472Z,4.20
2018-09-11T07:47:37.458Z,4.50
2018-09-11T07:48:37.450Z,4.30
2018-09-11T07:49:37.438Z,5.40
2018-09-11T07:50:37.450Z,4.00
2018-09-11T07:51:37.416Z,5.90
2018-09-11T07:52:37.483Z,5.50
2018-09-11T07:53:37.414Z,5.70
2018-09-11T07:54:37.390Z,4.40
2018-09-11T07:55:37.407Z,4.80
2018-09-11T07:56:37.364Z,5.60
2018-09-11T07:57:37.378Z,4.20
2018-09-11T07:58:37.346Z,8.00
2018-09-11T07:59:37.333Z,5.70
2018-09-11T08:00:37.358Z,4.10
2018-09-11T08:01:37.309Z,4.00
2018-09-11T08:02:37.306Z,3.70
2018-09-11T08:03:37.296Z,5.60
2018-09-11T08:04:37.276Z,5.80
2018-09-11T08:05:37.265Z,2.60
2018-09-11T08:06:37.292Z,4.10
2018-09-11T08:07:37.243Z,5.40
2018-09-11T08:08:37.232Z,4.80
2018-09-11T08:09:37.258Z,4.60
2018-09-11T08:10:37.210Z,4.50
2018-09-11T08:11:37.232Z,5.30
2018-09-11T08:12:37.188Z,4.90
2018-09-11T08:13:37.176Z,4.60
2018-09-11T08:14:37.168Z,4.50
2018-09-11T08:15:37.163Z,6.20
2018-09-11T08:16:37.177Z,4.30
2018-09-11T08:17:37.136Z,4.70
2018-09-11T08:18:37.121Z,2.90
2018-09-11T08:19:37.166Z,4.40
2018-09-11T08:20:37.100Z,3.30
2018-09-11T08:21:37.115Z,2.60
2018-09-11T08:22:37.079Z,5.10
2018-09-11T08:23:37.068Z,4.50
2018-09-11T08:24:37.064Z,6.30
2018-09-11T08:25:37.045Z,4.00
2018-09-11T08:26:37.103Z,2.10
2018-09-11T08:27:37.023Z,3.40
2018-09-11T08:28:37.014Z,3.00
2018-09-11T08:29:36.999Z,2.50
2018-09-11T08:30:36.992Z,4.60
2018-09-11T08:31:36.978Z,1.80
2018-09-11T08:32:36.992Z,2.30
2018-09-11T08:33:36.955Z,4.10
2018-09-11T08:34:36.945Z,2.70
2018-09-11T08:35:36.934Z,3.40
2018-09-11T08:36:36.960Z,3.70
2018-09-11T08:37:36.911Z,1.70
2018-09-11T08:38:36.901Z,2.80
2018-09-11T08:39:36.906Z,2.50
2018-09-11T08:40:36.878Z,2.60
2018-09-11T08:41:36.867Z,2.70
2018-09-11T08:42:36.883Z,2.80
2018-09-11T08:43:36.848Z,1.50
2018-09-11T08:44:36.834Z,3.10
2018-09-11T08:45:36.823Z,1.90
2018-09-11T08:46:36.834Z,2.90
2018-09-11T08:47:36.835Z,1.90
2018-09-11T08:48:36.791Z,2.80
2018-09-11T08:49:36.783Z,2.30
2018-09-11T08:50:36.769Z,4.60
2018-09-11T08:51:36.757Z,4.80
2018-09-11T08:52:36.919Z,5.60
2018-09-11T08:53:36.740Z,4.50
2018-09-11T08:54:36.725Z,2.40
2018-09-11T08:55:36.717Z,2.60
2018-09-11T08:56:36.705Z,2.60
2018-09-11T08:57:36.697Z,3.60
2018-09-11T08:58:36.753Z,3.20
2018-09-11T08:59:36.672Z,3.90
2018-09-11T09:00:36.662Z,3.20
2018-09-11T09:01:36.651Z,3.30
2018-09-11T09:02:36.640Z,2.10
2018-09-11T09:03:36.672Z,2.40
2018-09-11T09:04:36.618Z,1.40
2018-09-11T09:05:36.623Z,2.80
2018-09-11T09:06:36.609Z,2.40
2018-09-11T09:07:36.585Z,5.00
2018-09-11T09:08:36.577Z,2.20
2018-09-11T09:09:36.592Z,4.70
2018-09-11T09:10:36.555Z,2.90
2018-09-11T09:11:36.543Z,3.70
2018-09-11T09:12:36.530Z,2.10
2018-09-11T09:13:36.529Z,2.80
2018-09-11T09:14:36.536Z,2.10
2018-09-11T09:15:36.505Z,1.70
2018-09-11T09:16:36.488Z,3.40
2018-09-11T09:17:36.476Z,1.90
2018-09-11T09:18:36.481Z,2.70
2018-09-11T09:19:36.521Z,2.60
2018-09-11T09:20:36.444Z,2.60
2018-09-11T09:21:36.439Z,2.70
2018-09-11T09:22:36.426Z,3.50
2018-09-11T09:23:36.411Z,3.40
2018-09-11T09:24:36.400Z,3.70
2018-09-11T09:25:36.415Z,2.50
2018-09-11T09:26:36.382Z,4.20
2018-09-11T09:27:36.512Z,3.90
2018-09-11T09:28:36.379Z,3.10
2018-09-11T09:29:36.357Z,2.40
2018-09-11T09:30:36.367Z,3.70
2018-09-11T09:31:36.331Z,3.80
2018-09-11T09:32:36.314Z,4.80
2018-09-11T09:33:36.322Z,2.80
2018-09-11T09:34:36.295Z,4.70
2018-09-11T09:35:36.288Z,2.90
2018-09-11T09:36:36.372Z,2.70
2018-09-11T09:37:36.271Z,2.20
2018-09-11T09:38:36.250Z,3.30
2018-09-11T09:39:36.253Z,3.30
2018-09-11T09:40:36.229Z,5.40
2018-09-11T09:41:36.266Z,4.40
2018-09-11T09:42:36.211Z,2.20
2018-09-11T09:43:36.197Z,2.60
2018-09-11T09:44:36.192Z,4.40
2018-09-11T09:45:36.170Z,3.10
2018-09-11T09:46:36.191Z,1.80
2018-09-11T09:47:36.155Z,3.70
2018-09-11T09:48:36.139Z,4.10
2018-09-11T09:49:36.136Z,4.00
2018-09-11T09:50:36.123Z,3.20
2018-09-11T09:51:36.115Z,4.40
2018-09-11T09:52:36.120Z,2.40
2018-09-11T09:53:36.086Z,2.10
2018-09-11T09:54:36.082Z,2.00
2018-09-11T09:55:36.063Z,2.30
2018-09-11T09:56:36.057Z,1.70
2018-09-11T09:57:36.066Z,1.50
2018-09-11T09:58:36.041Z,2.10
2018-09-11T09:59:36.021Z,1.90
2018-09-11T10:00:36.018Z,2.00
2018-09-11T10:01:36.005Z,3.40
2018-09-11T10:02:36.024Z,1.60
2018-09-11T10:03:35.978Z,1.80
2018-09-11T10:04:35.975Z,1.50
2018-09-11T10:05:35.956Z,1.40
2018-09-11T10:06:35.947Z,1.70
2018-09-11T10:07:35.969Z,1.90
2018-09-11T10:08:35.923Z,1.70
2018-09-11T10:09:35.929Z,2.40
2018-09-11T10:10:35.908Z,1.40
2018-09-11T10:11:35.901Z,2.80
2018-09-11T10:12:35.878Z,1.50
2018-09-11T10:13:35.908Z,1.30
2018-09-11T10:14:35.861Z,1.80
2018-09-11T10:15:35.845Z,2.90
2018-09-11T10:16:35.835Z,3.30
2018-09-11T10:17:35.899Z,1.60
2018-09-11T10:18:35.814Z,6.20
2018-09-11T10:19:35.827Z,2.30
2018-09-11T10:20:35.796Z,2.80
2018-09-11T10:21:35.785Z,2.40
2018-09-11T10:22:35.782Z,1.50
2018-09-11T10:23:35.760Z,2.20
2018-09-11T10:24:35.812Z,2.00
2018-09-11T10:25:35.739Z,1.60
2018-09-11T10:26:35.727Z,2.00
2018-09-11T10:27:35.769Z,2.30
2018-09-11T10:28:35.705Z,1.80
2018-09-11T10:29:35.718Z,2.60
2018-09-11T10:30:35.692Z,1.70
2018-09-11T10:31:35.679Z,1.80
2018-09-11T10:32:35.660Z,1.50
2018-09-11T10:33:35.665Z,1.70
2018-09-11T10:34:35.690Z,1.30
2018-09-11T10:35:35.628Z,5.00
2018-09-11T10:36:35.620Z,2.50
2018-09-11T10:37:35.616Z,1.60
2018-09-11T10:38:35.594Z,1.90
2018-09-11T10:39:35.590Z,3.60
2018-09-11T10:40:35.616Z,2.50
2018-09-11T10:41:35.564Z,1.70
2018-09-11T10:42:35.555Z,2.40
2018-09-11T10:43:35.556Z,3.40
2018-09-11T10:44:35.533Z,1.90
2018-09-11T10:45:35.536Z,1.50
2018-09-11T10:46:35.551Z,1.60
2018-09-11T10:47:35.521Z,2.40
2018-09-11T10:48:35.489Z,1.90
2018-09-11T10:49:35.498Z,1.30
2018-09-11T10:50:35.470Z,1.80
2018-09-11T10:51:35.500Z,2.50
2018-09-11T10:52:35.444Z,2.20
2018-09-11T10:53:35.437Z,2.20
2018-09-11T10:54:35.441Z,1.90
2018-09-11T10:55:35.414Z,1.90
2018-09-11T10:56:35.427Z,4.80
2018-09-11T10:57:35.402Z,3.70
2018-09-11T10:58:35.388Z,2.20
2018-09-11T10:59:35.372Z,1.60
2018-09-11T11:00:35.366Z,1.30
2018-09-11T11:01:35.381Z,1.80
2018-09-11T11:02:35.343Z,1.90
2018-09-11T11:03:35.330Z,1.50
2018-09-11T11:04:35.316Z,2.30
2018-09-11T11:05:35.303Z,3.00
2018-09-11T11:06:35.301Z,1.90
2018-09-11T11:07:35.309Z,3.00
2018-09-11T11:08:35.273Z,1.90
2018-09-11T11:09:35.282Z,2.00
2018-09-11T11:10:35.262Z,1.10
2018-09-11T11:11:35.254Z,1.30
2018-09-11T11:12:35.230Z,1.90
2018-09-11T11:13:36.127Z,3.00
2018-09-11T11:14:35.208Z,3.10
2018-09-11T11:15:35.198Z,2.60
2018-09-11T11:16:35.192Z,1.70
2018-09-11T11:17:35.182Z,3.50
2018-09-11T11:18:35.201Z,1.90
2018-09-11T11:19:35.179Z,1.40
2018-09-11T11:20:35.145Z,3.70
2018-09-11T11:21:35.135Z,2.50
2018-09-11T11:22:35.146Z,1.30
2018-09-11T11:23:35.150Z,3.10
2018-09-11T11:24:35.104Z,1.80
2018-09-11T11:25:35.089Z,1.70
2018-09-11T11:26:35.080Z,1.70
2018-09-11T11:27:35.083Z,1.90
2018-09-11T11:28:35.058Z,1.80
2018-09-11T11:29:35.071Z,2.10
2018-09-11T11:30:35.066Z,3.10
2018-09-11T11:31:35.026Z,2.10
2018-09-11T11:32:35.013Z,1.70
2018-09-11T11:33:35.029Z,2.00
2018-09-11T11:34:35.023Z,1.50
2018-09-11T11:35:34.982Z,1.40
2018-09-11T11:36:35.031Z,3.20
2018-09-11T11:37:34.960Z,3.10
2018-09-11T11:38:34.950Z,2.30
2018-09-11T11:39:34.951Z,2.00
2018-09-11T11:40:34.957Z,2.40
2018-09-11T11:41:34.926Z,1.40
2018-09-11T11:42:34.907Z,1.10
2018-09-11T11:43:34.897Z,2.50
2018-09-11T11:44:34.885Z,2.60
2018-09-11T11:45:34.901Z,1.30
2018-09-11T11:46:34.880Z,3.20
2018-09-11T11:47:34.854Z,2.10
2018-09-11T11:48:34.841Z,1.90
2018-09-11T11:49:34.835Z,1.50
2018-09-11T11:50:34.864Z,3.80
2018-09-11T11:51:34.819Z,1.30
2018-09-11T11:52:34.799Z,3.00
2018-09-11T11:53:34.793Z,1.40
2018-09-11T11:54:34.778Z,6.10
2018-09-11T11:55:34.778Z,1.70
2018-09-11T11:56:34.806Z,2.30
2018-09-11T11:57:34.760Z,2.50
2018-09-11T11:58:34.744Z,5.40
2018-09-11T11:59:34.725Z,2.80
2018-09-11T12:00:34.736Z,2.60
2018-09-11T12:01:34.747Z,1.30
2018-09-11T12:02:34.693Z,2.10
2018-09-11T12:03:34.682Z,1.40
2018-09-11T12:04:34.672Z,2.70
2018-09-11T12:05:34.663Z,1.70
2018-09-11T12:06:34.653Z,1.40
2018-09-11T12:07:34.663Z,5.40
2018-09-11T12:08:34.631Z,1.70
2018-09-11T12:09:34.672Z,1.50
2018-09-11T12:10:34.611Z,1.60
2018-09-11T12:11:34.601Z,2.10
2018-09-11T12:12:34.634Z,1.30
2018-09-11T12:13:34.580Z,1.30
2018-09-11T12:14:34.577Z,2.50
2018-09-11T12:15:34.559Z,1.30
2018-09-11T12:16:34.556Z,2.90
2018-09-11T12:17:34.565Z,4.20
2018-09-11T12:18:34.580Z,4.30
2018-09-11T12:19:34.524Z,1.20
2018-09-11T12:20:34.512Z,2.40
2018-09-11T12:21:34.504Z,2.10
2018-09-11T12:22:34.520Z,1.80
2018-09-11T12:23:34.484Z,2.10
2018-09-11T12:24:34.472Z,1.30
2018-09-11T12:25:34.473Z,2.80
2018-09-11T12:26:34.461Z,1.90
2018-09-11T12:27:34.441Z,1.40
2018-09-11T12:28:34.463Z,1.20
2018-09-11T12:29:34.445Z,1.90
2018-09-11T12:30:34.415Z,2.20
2018-09-11T12:31:34.434Z,1.40
2018-09-11T12:32:34.424Z,1.10
2018-09-11T12:33:34.379Z,1.90
2018-09-11T12:34:34.371Z,1.00
2018-09-11T12:35:34.366Z,2.10
2018-09-11T12:36:34.377Z,1.40
2018-09-11T12:37:34.339Z,3.90
2018-09-11T12:38:34.354Z,2.50
2018-09-11T12:39:34.327Z,2.70
2018-09-11T12:40:34.307Z,1.20
2018-09-11T12:41:34.301Z,1.30
2018-09-11T12:42:34.299Z,1.40
2018-09-11T12:43:34.311Z,1.80
2018-09-11T12:44:34.274Z,1.80
2018-09-11T12:45:34.256Z,2.00
2018-09-11T12:46:34.639Z,2.70
2018-09-11T12:47:34.667Z,1.20
2018-09-11T12:48:34.363Z,1.90
2018-09-11T12:49:34.244Z,1.90
2018-09-11T12:50:34.203Z,1.50
2018-09-11T12:51:34.194Z,2.10
2018-09-11T12:52:34.226Z,2.20
2018-09-11T12:53:34.177Z,1.30
2018-09-11T12:54:34.191Z,1.10
2018-09-11T12:55:34.155Z,7.50
2018-09-11T12:56:34.143Z,1.60
2018-09-11T12:57:34.133Z,1.80
2018-09-11T12:58:34.120Z,1.50
2018-09-11T12:59:34.152Z,2.10
2018-09-11T13:00:34.119Z,1.20
2018-09-11T13:01:34.090Z,3.20
2018-09-11T13:02:34.118Z,1.90
2018-09-11T13:03:34.069Z,1.50
2018-09-11T13:04:34.061Z,1.50
2018-09-11T13:05:34.083Z,3.10
2018-09-11T13:06:34.039Z,1.30
2018-09-11T13:07:34.029Z,1.60
2018-09-11T13:08:34.016Z,3.60
2018-09-11T13:09:34.066Z,2.80
2018-09-11T13:10:34.022Z,1.30
2018-09-11T13:11:34.010Z,4.20
2018-09-11T13:12:33.974Z,1.50